createdAt,value
2023-02-06T00:02:08.731Z,4.80
2023-02-06T00:04:35.370Z,5.43
2023-02-06T00:07:02.038Z,5.40
2023-02-06T00:09:28.618Z,5.65
2023-02-06T00:11:55.242Z,5.93
2023-02-06T00:14:21.866Z,5.75
2023-02-06T00:16:49.772Z,5.43
2023-02-06T00:19:16.342Z,5.68
2023-02-06T00:21:42.844Z,6.00
2023-02-06T00:24:09.554Z,5.05
2023-02-06T00:26:36.218Z,6.00
2023-02-06T00:29:02.988Z,6.43
2023-02-06T00:31:29.764Z,5.93
2023-02-06T00:33:57.820Z,5.63
2023-02-06T00:36:25.580Z,5.40
2023-02-06T00:38:52.220Z,5.53
2023-02-06T00:41:19.797Z,5.90
2023-02-06T00:43:46.386Z,5.18
2023-02-06T00:46:13.028Z,4.93
2023-02-06T00:48:39.639Z,6.22
2023-02-06T00:51:07.747Z,5.80
2023-02-06T00:53:37.003Z,6.10
2023-02-06T00:56:03.840Z,5.00
2023-02-06T00:58:30.438Z,6.07
2023-02-06T01:00:57.108Z,6.00
2023-02-06T01:03:23.797Z,5.35
2023-02-06T01:05:50.402Z,4.93
2023-02-06T01:08:18.316Z,5.25
2023-02-06T01:10:45.067Z,6.05
2023-02-06T01:13:11.693Z,6.40
2023-02-06T01:15:40.919Z,5.65
2023-02-06T01:18:07.564Z,6.40
2023-02-06T01:20:34.547Z,5.05
2023-02-06T01:23:03.464Z,6.07
2023-02-06T01:25:32.515Z,5.88
2023-02-06T01:27:59.210Z,5.60
2023-02-06T01:30:26.224Z,5.20
2023-02-06T01:32:52.801Z,5.82
2023-02-06T01:35:19.513Z,5.30
2023-02-06T01:37:46.266Z,4.95
2023-02-06T01:40:15.193Z,5.15
2023-02-06T01:42:43.469Z,5.32
2023-02-06T01:45:37.743Z,5.78
2023-02-06T01:48:09.776Z,6.90
2023-02-06T01:50:39.261Z,6.20
2023-02-06T01:53:06.633Z,5.47
2023-02-06T01:55:35.034Z,5.63
2023-02-06T01:58:04.555Z,5.57
2023-02-06T02:00:31.578Z,5.47
2023-02-06T02:02:58.163Z,5.63
2023-02-06T02:05:25.087Z,5.85
2023-02-06T02:07:56.714Z,6.80
2023-02-06T02:10:23.322Z,5.85
2023-02-06T02:12:50.077Z,7.25
2023-02-06T02:15:18.395Z,7.60
2023-02-06T02:18:01.397Z,6.82
2023-02-06T02:23:31.956Z,6.82
2023-02-06T02:26:46.305Z,8.18
2023-02-06T02:30:05.339Z,6.95
2023-02-06T02:32:56.614Z,7.82
2023-02-06T02:35:40.393Z,7.07
2023-02-06T02:38:18.004Z,7.65
2023-02-06T02:40:50.541Z,6.78
2023-02-06T02:43:28.308Z,6.80
2023-02-06T02:45:59.772Z,5.88
2023-02-06T02:48:29.583Z,6.53
2023-02-06T02:50:59.875Z,5.78
2023-02-06T02:53:27.206Z,6.53
2023-02-06T02:55:54.518Z,5.65
2023-02-06T02:58:26.537Z,5.32
2023-02-06T03:00:57.901Z,6.63
2023-02-06T03:03:28.230Z,5.20
2023-02-06T03:06:10.430Z,6.30
2023-02-06T03:08:46.460Z,5.55
2023-02-06T03:11:16.411Z,6.40
2023-02-06T03:13:49.859Z,7.82
2023-02-06T03:16:22.266Z,7.90
2023-02-06T03:18:56.530Z,7.72
2023-02-06T03:21:26.780Z,7.55
2023-02-06T03:23:57.757Z,7.43
2023-02-06T03:26:28.581Z,9.23
2023-02-06T03:28:59.765Z,8.05
2023-02-06T03:31:30.582Z,6.47
2023-02-06T03:34:02.316Z,5.32
2023-02-06T03:36:30.473Z,5.75
2023-02-06T03:38:57.083Z,4.45
2023-02-06T03:41:27.344Z,5.15
2023-02-06T03:43:55.672Z,4.68
2023-02-06T03:46:23.879Z,4.75
2023-02-06T03:48:57.311Z,4.45
2023-02-06T03:51:28.675Z,5.45
2023-02-06T03:54:00.502Z,4.90
2023-02-06T03:56:32.846Z,6.03
2023-02-06T03:59:00.032Z,4.78
2023-02-06T04:01:27.590Z,5.32
2023-02-06T04:03:54.783Z,4.70
2023-02-06T04:06:21.785Z,4.50
2023-02-06T04:08:48.385Z,5.63
2023-02-06T04:11:16.294Z,5.93
2023-02-06T04:13:42.951Z,4.93
2023-02-06T04:16:09.637Z,4.85
2023-02-06T04:18:36.285Z,5.80
2023-02-06T04:21:04.401Z,5.72
2023-02-06T04:23:31.210Z,5.18
2023-02-06T04:25:57.788Z,5.15
2023-02-06T04:28:25.772Z,5.30
2023-02-06T04:30:52.396Z,5.03
2023-02-06T04:33:19.008Z,4.93
2023-02-06T04:35:47.232Z,5.25
2023-02-06T04:38:13.883Z,5.22
2023-02-06T04:40:40.510Z,5.70
2023-02-06T04:43:07.131Z,6.13
2023-02-06T04:45:35.447Z,6.82
2023-02-06T04:48:02.160Z,6.68
2023-02-06T04:50:28.726Z,7.57
2023-02-06T04:52:55.275Z,7.00
2023-02-06T04:55:21.880Z,7.15
2023-02-06T04:57:48.679Z,6.55
2023-02-06T05:00:16.149Z,7.03
2023-02-06T05:02:44.377Z,6.63
2023-02-06T05:05:11.236Z,6.63
2023-02-06T05:07:37.856Z,6.82
2023-02-06T05:10:05.029Z,6.18
2023-02-06T05:12:31.653Z,6.75
2023-02-06T05:14:58.306Z,6.65
2023-02-06T05:17:24.942Z,6.40
2023-02-06T05:19:52.870Z,7.03
2023-02-06T05:22:19.580Z,6.38
2023-02-06T05:24:46.167Z,7.35
2023-02-06T05:27:12.779Z,8.18
2023-02-06T05:29:39.409Z,8.60
2023-02-06T05:32:06.145Z,7.50
2023-02-06T05:34:32.730Z,10.77
2023-02-06T05:37:00.799Z,7.75
2023-02-06T05:39:27.727Z,7.88
2023-02-06T05:41:54.323Z,8.45
2023-02-06T05:44:20.984Z,8.55
2023-02-06T05:46:47.581Z,8.65
2023-02-06T05:49:14.334Z,8.93
2023-02-06T05:51:40.924Z,9.25
2023-02-06T05:54:09.060Z,8.50
2023-02-06T05:56:35.710Z,8.85
2023-02-06T05:59:02.365Z,8.60
2023-02-06T06:01:28.934Z,9.05
2023-02-06T06:03:55.908Z,8.88
2023-02-06T06:06:22.528Z,9.73
2023-02-06T06:08:49.047Z,10.90
2023-02-06T06:11:17.145Z,9.38
2023-02-06T06:13:43.704Z,9.63
2023-02-06T06:16:10.368Z,8.95
2023-02-06T06:18:37.213Z,8.55
2023-02-06T06:21:04.236Z,6.93
2023-02-06T06:23:30.918Z,8.27
2023-02-06T06:25:57.653Z,6.70
2023-02-06T06:28:26.046Z,6.68
2023-02-06T06:31:00.200Z,6.55
2023-02-06T06:33:26.851Z,7.25
2023-02-06T06:35:53.390Z,8.23
2023-02-06T06:38:19.944Z,7.70
2023-02-06T06:40:46.472Z,7.68
2023-02-06T06:43:13.096Z,8.05
2023-02-06T06:45:41.125Z,8.75
2023-02-06T06:48:07.800Z,9.77
2023-02-06T06:50:34.447Z,8.20
2023-02-06T06:53:01.048Z,7.95
2023-02-06T06:55:27.596Z,7.50
2023-02-06T06:57:54.295Z,8.57
2023-02-06T07:00:21.067Z,7.28
2023-02-06T07:02:49.151Z,7.88
2023-02-06T07:05:15.961Z,7.95
2023-02-06T07:07:42.606Z,8.32
2023-02-06T07:10:11.150Z,7.03
2023-02-06T07:12:37.994Z,6.88
2023-02-06T07:15:05.716Z,7.13
2023-02-06T07:17:32.459Z,7.60
2023-02-06T07:20:00.536Z,6.65
2023-02-06T07:22:27.226Z,7.10
2023-02-06T07:24:54.586Z,7.60
2023-02-06T07:27:21.374Z,7.00
2023-02-06T07:29:47.896Z,7.15
2023-02-06T07:32:14.568Z,7.10
2023-02-06T07:34:41.111Z,6.97
2023-02-06T07:37:09.052Z,6.75
2023-02-06T07:39:35.659Z,6.40
2023-02-06T07:42:02.274Z,6.35
2023-02-06T07:44:42.298Z,5.90
2023-02-06T07:47:09.229Z,5.95
2023-02-06T07:49:36.001Z,7.40
2023-02-06T07:52:02.728Z,7.57
2023-02-06T07:54:30.631Z,8.82
2023-02-06T07:56:57.205Z,8.52
2023-02-06T07:59:23.836Z,8.15
2023-02-06T08:01:50.515Z,9.30
2023-02-06T08:04:17.198Z,8.10
2023-02-06T08:06:44.593Z,8.05
2023-02-06T08:09:12.503Z,7.30
2023-02-06T08:11:48.271Z,8.73
2023-02-06T08:14:15.050Z,8.68
2023-02-06T08:16:41.879Z,7.30
2023-02-06T08:19:08.547Z,7.75
2023-02-06T08:21:35.163Z,7.45
2023-02-06T08:24:01.865Z,6.97
2023-02-06T08:26:29.898Z,8.00
2023-02-06T08:29:01.433Z,7.47
2023-02-06T08:31:30.530Z,8.25
2023-02-06T08:33:57.575Z,7.72
2023-02-06T08:36:25.233Z,8.48
2023-02-06T08:38:52.290Z,8.13
2023-02-06T08:41:21.442Z,7.90
2023-02-06T08:43:49.416Z,7.85
2023-02-06T08:46:19.124Z,8.43
2023-02-06T08:48:45.887Z,8.77
2023-02-06T08:51:13.299Z,8.82
2023-02-06T08:53:40.001Z,9.25
2023-02-06T08:56:08.455Z,10.02
2023-02-06T08:58:36.779Z,9.65
2023-02-06T09:01:06.968Z,9.15
2023-02-06T09:03:35.182Z,9.27
2023-02-06T09:06:09.870Z,9.00
2023-02-06T09:08:37.470Z,8.82
2023-02-06T09:11:08.411Z,8.80
2023-02-06T09:13:35.182Z,9.30
2023-02-06T09:16:02.038Z,8.80
2023-02-06T09:18:28.950Z,8.55
2023-02-06T09:21:08.692Z,9.18
2023-02-06T09:23:35.355Z,10.07
2023-02-06T09:26:02.032Z,10.15
2023-02-06T09:28:28.877Z,9.60
2023-02-06T09:30:55.708Z,10.43
2023-02-06T09:33:22.803Z,10.02
2023-02-06T09:35:49.461Z,10.52
2023-02-06T09:38:17.369Z,9.95
2023-02-06T09:40:44.140Z,9.27
2023-02-06T09:43:13.663Z,9.55
2023-02-06T09:45:41.197Z,10.38
2023-02-06T09:48:19.831Z,9.65
2023-02-06T09:50:54.533Z,9.13
2023-02-06T09:53:30.513Z,10.13
2023-02-06T09:56:08.287Z,9.32
2023-02-06T09:58:42.344Z,9.48
2023-02-06T10:01:17.067Z,9.07
2023-02-06T10:04:22.500Z,9.20
2023-02-06T10:06:54.239Z,8.70
2023-02-06T10:09:31.911Z,9.68
2023-02-06T10:12:02.127Z,9.75
2023-02-06T10:14:41.740Z,9.73
2023-02-06T10:17:17.931Z,9.38
2023-02-06T10:19:50.826Z,9.20
2023-02-06T10:22:24.219Z,9.10
2023-02-06T10:25:03.323Z,9.80
2023-02-06T10:27:33.163Z,9.85
2023-02-06T10:30:00.096Z,10.23
2023-02-06T10:32:38.896Z,9.18
2023-02-06T10:35:16.642Z,8.93
2023-02-06T10:38:20.646Z,10.48
2023-02-06T10:40:55.518Z,10.50
2023-02-06T10:43:32.650Z,9.77
2023-02-06T10:46:10.374Z,10.13
2023-02-06T10:48:42.988Z,9.38
2023-02-06T10:51:18.500Z,10.15
2023-02-06T10:53:49.716Z,8.77
2023-02-06T10:56:21.528Z,10.57
2023-02-06T10:58:53.359Z,8.77
2023-02-06T11:01:26.430Z,9.75
2023-02-06T11:03:58.660Z,9.68
2023-02-06T11:06:27.731Z,10.50
2023-02-06T11:08:54.634Z,9.27
2023-02-06T11:11:25.136Z,9.60
2023-02-06T11:13:56.640Z,8.60
2023-02-06T11:16:26.767Z,8.52
2023-02-06T11:18:55.709Z,7.90
2023-02-06T11:21:48.236Z,7.72
2023-02-06T11:24:16.913Z,8.30
2023-02-06T11:26:49.572Z,9.25
2023-02-06T11:29:18.955Z,8.98
2023-02-06T11:31:48.332Z,9.25
2023-02-06T11:34:23.240Z,9.60
2023-02-06T11:36:53.464Z,8.80
2023-02-06T11:39:29.478Z,8.93
2023-02-06T11:42:02.640Z,9.15
2023-02-06T11:44:36.309Z,9.10
2023-02-06T11:47:29.491Z,8.82
2023-02-06T11:49:56.252Z,8.90
2023-02-06T11:52:31.076Z,9.57
2023-02-06T11:54:58.400Z,9.32
2023-02-06T11:57:26.422Z,9.27
2023-02-06T11:59:54.753Z,8.77
2023-02-06T12:02:27.795Z,10.05
2023-02-06T12:05:01.542Z,9.10
2023-02-06T12:07:31.199Z,9.05
2023-02-06T12:09:57.830Z,8.93
2023-02-06T12:12:30.347Z,9.07
2023-02-06T12:15:10.235Z,9.40
2023-02-06T12:17:48.152Z,9.57
2023-02-06T12:20:19.214Z,9.48
2023-02-06T12:22:50.239Z,8.80
2023-02-06T12:25:25.747Z,11.05
2023-02-06T12:27:56.880Z,10.50
2023-02-06T12:30:31.869Z,10.63
2023-02-06T12:33:05.116Z,10.82
2023-02-06T12:35:36.310Z,12.40
2023-02-06T12:38:13.081Z,12.40
2023-02-06T12:40:50.182Z,11.27
2023-02-06T12:43:19.376Z,11.60
2023-02-06T12:45:51.993Z,11.77
2023-02-06T12:50:54.050Z,10.95
2023-02-06T12:53:28.485Z,12.13
2023-02-06T12:56:01.379Z,10.30
2023-02-06T12:58:36.466Z,12.20
2023-02-06T13:01:36.837Z,11.52
2023-02-06T13:04:10.284Z,12.15
2023-02-06T13:06:46.421Z,11.70
2023-02-06T13:09:21.312Z,12.20
2023-02-06T13:11:48.364Z,12.23
2023-02-06T13:14:22.182Z,12.15
2023-02-06T13:16:52.903Z,12.23
2023-02-06T13:19:28.644Z,11.07
2023-02-06T13:22:42.921Z,11.30
2023-02-06T13:25:51.453Z,9.90
2023-02-06T13:28:41.068Z,11.52
2023-02-06T13:31:22.146Z,12.48
2023-02-06T13:33:52.276Z,10.90
2023-02-06T13:36:26.048Z,9.80
2023-02-06T13:38:55.236Z,9.80
2023-02-06T13:41:30.443Z,10.52
2023-02-06T13:44:00.623Z,10.80
2023-02-06T13:46:46.435Z,11.40
2023-02-06T13:49:37.273Z,9.10
2023-02-06T13:52:10.365Z,8.93
2023-02-06T13:54:55.292Z,9.90
2023-02-06T13:57:39.925Z,9.43
2023-02-06T14:00:13.764Z,9.20
2023-02-06T14:02:44.060Z,10.07
2023-02-06T14:05:18.806Z,9.32
2023-02-06T14:08:05.029Z,9.07
2023-02-06T14:10:52.222Z,8.73
2023-02-06T14:13:33.360Z,8.50
2023-02-06T14:16:16.099Z,8.40
2023-02-06T14:18:50.731Z,8.25
2023-02-06T14:21:31.825Z,9.13
2023-02-06T14:24:25.592Z,8.70
2023-02-06T14:27:04.730Z,8.70
2023-02-06T14:29:44.906Z,7.78
2023-02-06T14:32:23.081Z,8.23
2023-02-06T14:35:02.631Z,8.18
2023-02-06T14:37:42.428Z,7.22
2023-02-06T14:40:18.800Z,7.65
2023-02-06T14:42:46.606Z,7.55
2023-02-06T14:45:25.139Z,7.10
2023-02-06T14:47:53.325Z,6.80
2023-02-06T14:50:23.326Z,8.05
2023-02-06T14:52:53.441Z,7.80
2023-02-06T14:55:30.202Z,7.57
2023-02-06T14:57:57.588Z,7.85
2023-02-06T15:00:24.967Z,8.52
2023-02-06T15:03:03.011Z,7.95
2023-02-06T15:05:31.043Z,7.53
2023-02-06T15:07:58.997Z,7.55
2023-02-06T15:10:31.130Z,8.80
2023-02-06T15:12:57.949Z,7.15
2023-02-06T15:15:26.264Z,7.50
2023-02-06T15:17:58.107Z,6.75
2023-02-06T15:20:27.565Z,7.18
2023-02-06T15:23:05.064Z,7.70
2023-02-06T15:25:49.134Z,6.85
2023-02-06T15:28:18.285Z,7.40
2023-02-06T15:30:45.559Z,7.57
2023-02-06T15:33:20.437Z,6.80
2023-02-06T15:35:50.043Z,6.55
2023-02-06T15:38:18.387Z,6.93
2023-02-06T15:40:46.585Z,6.85
2023-02-06T15:43:15.470Z,6.43
2023-02-06T15:45:44.024Z,6.60
2023-02-06T15:48:16.949Z,6.22
2023-02-06T15:50:55.552Z,7.00
2023-02-06T15:53:33.867Z,6.63
2023-02-06T15:56:03.499Z,6.25
2023-02-06T15:58:31.842Z,6.10
2023-02-06T16:00:59.988Z,6.63
2023-02-06T16:03:29.715Z,6.70
2023-02-06T16:05:56.908Z,6.72
2023-02-06T16:08:27.682Z,6.60
2023-02-06T16:10:59.834Z,6.00
2023-02-06T16:13:29.494Z,6.43
2023-02-06T16:16:07.366Z,6.13
2023-02-06T16:18:35.915Z,6.82
2023-02-06T16:21:23.556Z,6.35
2023-02-06T16:23:52.905Z,6.82
2023-02-06T16:26:23.493Z,7.13
2023-02-06T16:28:57.030Z,8.50
2023-02-06T16:31:25.408Z,7.47
2023-02-06T16:33:54.046Z,8.95
2023-02-06T16:36:23.521Z,7.85
2023-02-06T16:39:02.783Z,7.97
2023-02-06T16:41:34.334Z,7.28
2023-02-06T16:44:02.264Z,7.43
2023-02-06T16:46:29.587Z,8.45
2023-02-06T16:48:58.110Z,8.20
2023-02-06T16:51:27.739Z,8.68
2023-02-06T16:53:55.045Z,8.38
2023-02-06T16:56:21.826Z,8.82
2023-02-06T16:58:49.964Z,8.27
2023-02-06T17:01:22.214Z,8.32
2023-02-06T17:03:49.601Z,8.15
2023-02-06T17:06:20.919Z,8.13
2023-02-06T17:08:48.153Z,7.93
2023-02-06T17:11:14.837Z,8.10
2023-02-06T17:13:41.580Z,7.97
2023-02-06T17:16:14.873Z,7.78
2023-02-06T17:18:41.454Z,7.60
2023-02-06T17:21:12.484Z,8.85
2023-02-06T17:23:39.274Z,12.27
2023-02-06T17:26:06.132Z,11.07
2023-02-06T17:28:32.788Z,9.90
2023-02-06T17:30:59.422Z,8.35
2023-02-06T17:33:27.546Z,8.65
2023-02-06T17:35:54.273Z,12.52
2023-02-06T17:38:21.026Z,11.57
2023-02-06T17:40:47.918Z,16.55
2023-02-06T17:43:14.582Z,13.30
2023-02-06T17:45:41.711Z,13.20
2023-02-06T17:48:08.931Z,12.23
2023-02-06T17:50:39.344Z,11.05
2023-02-06T17:53:07.089Z,11.88
2023-02-06T17:55:34.967Z,10.85
2023-02-06T17:58:01.677Z,11.73
2023-02-06T18:00:28.856Z,16.50
2023-02-06T18:02:57.973Z,17.98
2023-02-06T18:05:24.985Z,13.93
2023-02-06T18:07:52.957Z,11.40
2023-02-06T18:10:21.855Z,11.95
2023-02-06T18:12:48.552Z,10.68
2023-02-06T18:15:15.534Z,10.57
2023-02-06T18:17:42.624Z,11.02
2023-02-06T18:20:11.462Z,10.18
2023-02-06T18:22:38.145Z,11.43
2023-02-06T18:25:07.347Z,10.32
2023-02-06T18:27:34.062Z,11.02
2023-02-06T18:30:01.243Z,11.35
2023-02-06T18:32:27.836Z,11.10
2023-02-06T18:34:54.551Z,10.73
2023-02-06T18:37:21.159Z,10.98
2023-02-06T18:39:47.783Z,11.43
2023-02-06T18:42:15.737Z,10.48
2023-02-06T18:44:42.419Z,11.50
2023-02-06T18:47:09.375Z,11.43
2023-02-06T18:49:36.158Z,11.63
2023-02-06T18:52:03.062Z,11.65
2023-02-06T18:54:29.677Z,13.00
2023-02-06T18:56:56.260Z,11.07
2023-02-06T18:59:24.275Z,11.68
2023-02-06T19:01:50.920Z,13.07
2023-02-06T19:04:18.037Z,12.20
2023-02-06T19:06:45.690Z,15.57
2023-02-06T19:09:13.483Z,12.15
2023-02-06T19:11:41.251Z,11.43
2023-02-06T19:14:10.660Z,12.35
2023-02-06T19:16:38.941Z,12.55
2023-02-06T19:19:08.986Z,12.65
2023-02-06T19:21:35.828Z,11.68
2023-02-06T19:24:02.457Z,12.15
2023-02-06T19:26:31.288Z,13.38
2023-02-06T19:28:58.170Z,11.73
2023-02-06T19:31:25.085Z,11.82
2023-02-06T19:33:55.403Z,12.65
2023-02-06T19:36:24.402Z,11.65
2023-02-06T19:38:54.754Z,13.35
2023-02-06T19:41:24.169Z,14.38
2023-02-06T19:43:55.766Z,13.52
2023-02-06T19:46:24.741Z,14.77
2023-02-06T19:48:54.057Z,16.77
2023-02-06T19:51:23.999Z,15.02
2023-02-06T19:53:52.138Z,17.23
2023-02-06T19:56:20.884Z,109.10
2023-02-06T19:58:47.680Z,31.40
2023-02-06T20:01:16.505Z,22.42
2023-02-06T20:03:44.718Z,21.52
2023-02-06T20:06:16.073Z,20.80
2023-02-06T20:08:44.138Z,24.63
2023-02-06T20:11:13.125Z,22.73
2023-02-06T20:13:41.084Z,19.38
2023-02-06T20:16:13.983Z,18.33
2023-02-06T20:18:41.060Z,18.20
2023-02-06T20:21:21.738Z,18.98
2023-02-06T20:23:48.856Z,17.13
2023-02-06T20:26:16.378Z,18.13
2023-02-06T20:28:43.033Z,18.92
2023-02-06T20:31:10.623Z,19.00
2023-02-06T20:33:37.322Z,18.48
2023-02-06T20:36:05.940Z,19.20
2023-02-06T20:38:34.229Z,18.20
2023-02-06T20:41:00.967Z,18.05
2023-02-06T20:43:27.623Z,18.17
2023-02-06T20:45:54.268Z,17.10
2023-02-06T20:48:21.032Z,17.00
2023-02-06T20:50:47.720Z,17.80
2023-02-06T20:53:14.343Z,18.27
2023-02-06T20:55:42.435Z,17.85
2023-02-06T20:58:09.169Z,16.13
2023-02-06T21:00:36.206Z,16.58
2023-02-06T21:03:03.110Z,16.27
2023-02-06T21:05:29.845Z,16.30
2023-02-06T21:07:57.632Z,18.08
2023-02-06T21:10:24.638Z,17.65
2023-02-06T21:12:52.650Z,17.05
2023-02-06T21:15:19.479Z,16.38
2023-02-06T21:17:46.127Z,15.52
2023-02-06T21:20:12.856Z,15.52
2023-02-06T21:22:39.524Z,15.45
2023-02-06T21:25:06.459Z,15.77
2023-02-06T21:27:33.026Z,14.52
2023-02-06T21:30:01.072Z,15.88
2023-02-06T21:32:27.814Z,15.27
2023-02-06T21:34:54.444Z,16.52
2023-02-06T21:37:21.099Z,18.30
2023-02-06T21:39:48.945Z,17.92
2023-02-06T21:42:15.782Z,17.05
2023-02-06T21:44:42.415Z,16.52
2023-02-06T21:47:10.492Z,15.27
2023-02-06T21:49:37.232Z,17.02
2023-02-06T21:52:04.273Z,17.77
2023-02-06T21:54:30.978Z,19.35
2023-02-06T21:56:57.638Z,20.42
2023-02-06T21:59:24.354Z,16.98
2023-02-06T22:01:51.189Z,15.18
2023-02-06T22:04:21.509Z,16.30
2023-02-06T22:06:49.075Z,16.60
2023-02-06T22:09:16.714Z,14.07
2023-02-06T22:11:43.902Z,15.63
2023-02-06T22:14:12.884Z,14.70
2023-02-06T22:16:39.720Z,14.82
2023-02-06T22:19:06.778Z,14.00
2023-02-06T22:21:35.684Z,14.27
2023-02-06T22:24:04.643Z,14.40
2023-02-06T22:26:32.192Z,14.60
2023-02-06T22:28:58.876Z,14.30
2023-02-06T22:31:27.995Z,14.30
2023-02-06T22:33:55.423Z,13.50
2023-02-06T22:36:23.773Z,14.52
2023-02-06T22:38:57.479Z,14.60
2023-02-06T22:41:24.272Z,14.23
2023-02-06T22:43:51.681Z,13.77
2023-02-06T22:46:20.249Z,13.82
2023-02-06T22:48:47.725Z,14.15
2023-02-06T22:51:14.492Z,15.10
2023-02-06T22:53:41.744Z,15.63
2023-02-06T22:56:14.131Z,15.07
2023-02-06T22:58:41.112Z,14.57
2023-02-06T23:01:08.015Z,15.13
2023-02-06T23:03:34.974Z,15.48
2023-02-06T23:06:01.938Z,14.30
2023-02-06T23:08:28.950Z,14.68
2023-02-06T23:10:55.687Z,16.20
2023-02-06T23:13:24.095Z,15.23
2023-02-06T23:15:51.603Z,15.60
2023-02-06T23:18:18.369Z,15.32
2023-02-06T23:20:45.057Z,14.30
2023-02-06T23:23:11.788Z,14.40
2023-02-06T23:25:43.351Z,14.88
2023-02-06T23:28:10.153Z,16.45
2023-02-06T23:30:38.198Z,16.00
2023-02-06T23:33:05.300Z,17.85
2023-02-06T23:35:35.518Z,16.90
2023-02-06T23:38:02.489Z,17.85
2023-02-06T23:40:29.329Z,17.88
2023-02-06T23:42:56.057Z,17.92
2023-02-06T23:45:22.732Z,18.27
2023-02-06T23:47:51.069Z,19.40
2023-02-06T23:50:18.251Z,18.50
2023-02-06T23:52:44.908Z,19.80
2023-02-06T23:55:13.166Z,17.88
2023-02-06T23:57:40.672Z,20.13
